Time;durP1;ratioP1;P1;durP2;ratioP2;P2;SDS_P1;SDS_P2;PMS_P1;PMS_P2;Temp;Humidity;BMP_temperature;BMP_pressure;BME280_temperature;BME280_humidity;BME280_pressure;Samples;Min_cycle;Max_cycle;Signal;HPM_P1;HPM_P2
2022/01/15 00:00:28;;;;;;;47.10;26.73;;;;;;;-0.15;100.00;100698.06;5011496;28;20049;-74
2022/01/15 00:02:55;;;;;;;43.53;25.55;;;;;;;-0.21;100.00;100708.63;5013411;28;20034;-76
2022/01/15 00:05:21;;;;;;;49.75;28.10;;;;;;;-0.27;100.00;100698.44;5013435;28;20040;-75
2022/01/15 00:07:48;;;;;;;45.47;27.52;;;;;;;-0.35;100.00;100699.56;5013121;28;20470;-75
2022/01/15 00:10:20;;;;;;;41.55;25.58;;;;;;;-0.36;100.00;100697.88;5013610;28;20030;-74
2022/01/15 00:12:46;;;;;;;41.78;25.42;;;;;;;-0.32;100.00;100699.47;5010613;28;20042;-75
2022/01/15 00:15:19;;;;;;;38.17;25.60;;;;;;;-0.29;100.00;100699.34;5011703;28;20161;-76
2022/01/15 00:20:10;;;;;;;45.45;27.20;;;;;;;-0.25;100.00;100701.84;5012937;28;20033;-76
2022/01/15 00:22:35;;;;;;;47.75;26.70;;;;;;;-0.24;100.00;100692.31;5012894;28;20042;-75
2022/01/15 00:25:01;;;;;;;49.60;29.42;;;;;;;-0.31;100.00;100701.16;5013332;28;20038;-76
2022/01/15 00:27:26;;;;;;;49.58;29.08;;;;;;;-0.47;100.00;100699.03;5010609;28;20096;-76
2022/01/15 00:29:52;;;;;;;52.45;30.65;;;;;;;-0.54;100.00;100705.31;5013084;28;20359;-76
2022/01/15 00:32:17;;;;;;;50.33;29.58;;;;;;;-0.59;100.00;100691.59;4995639;28;20224;-75
2022/01/15 00:34:43;;;;;;;49.47;29.75;;;;;;;-0.63;100.00;100700.38;5012886;28;20041;-76
2022/01/15 00:37:08;;;;;;;51.45;30.67;;;;;;;-0.63;100.00;100699.53;5013195;28;20095;-75
2022/01/15 00:39:34;;;;;;;51.70;29.67;;;;;;;-0.66;100.00;100699.63;5012753;28;20545;-75
2022/01/15 00:42:00;;;;;;;48.15;28.73;;;;;;;-0.68;100.00;100691.88;5012923;28;20029;-74
2022/01/15 00:44:25;;;;;;;50.20;29.10;;;;;;;-0.66;100.00;100695.28;5013031;28;20122;-77
2022/01/15 00:46:51;;;;;;;46.97;28.25;;;;;;;-0.66;100.00;100700.47;5012996;28;20057;-75
2022/01/15 00:49:17;;;;;;;45.60;28.30;;;;;;;-0.65;100.00;100698.75;5013329;28;20049;-75
2022/01/15 00:51:42;;;;;;;51.95;28.77;;;;;;;-0.63;100.00;100684.81;5012786;28;20033;-75
2022/01/15 00:54:08;;;;;;;47.53;29.38;;;;;;;-0.62;100.00;100696.91;5013075;28;20472;-75
2022/01/15 00:56:33;;;;;;;52.97;29.65;;;;;;;-0.60;100.00;100687.34;5012611;28;20080;-75
2022/01/15 00:58:59;;;;;;;53.85;29.73;;;;;;;-0.58;100.00;100692.47;5013030;28;20489;-75
2022/01/15 01:01:24;;;;;;;50.20;29.80;;;;;;;-0.60;100.00;100695.13;5012418;28;20427;-75
2022/01/15 01:03:50;;;;;;;50.42;30.10;;;;;;;-0.65;100.00;100691.81;5011992;28;20393;-75
2022/01/15 01:06:16;;;;;;;54.83;31.02;;;;;;;-0.67;100.00;100688.41;5015026;28;20368;-76
2022/01/15 01:08:42;;;;;;;51.78;30.52;;;;;;;-0.71;100.00;100694.59;5016313;28;20041;-75
2022/01/15 01:11:14;;;;;;;46.92;28.70;;;;;;;-0.75;100.00;100692.94;5018129;28;20041;-75
2022/01/15 01:24:28;;;;;;;45.17;28.23;;;;;;;-0.86;100.00;100698.44;5009808;28;20254;-75
2022/01/15 01:27:19;;;;;;;58.85;29.52;;;;;;;-0.87;100.00;100690.72;5012229;28;20109;-75
2022/01/15 01:32:38;;;;;;;46.00;27.50;;;;;;;-0.96;100.00;100686.66;5009338;28;20029;-74
2022/01/15 01:35:13;;;;;;;45.88;27.50;;;;;;;-0.94;100.00;100687.44;5012305;28;20037;-73
2022/01/15 01:37:44;;;;;;;46.10;27.92;;;;;;;-0.92;100.00;100682.22;5011705;28;20046;-74
2022/01/15 01:40:19;;;;;;;46.35;27.75;;;;;;;-0.95;100.00;100682.31;5012099;28;20439;-75
2022/01/15 01:42:57;;;;;;;43.65;26.50;;;;;;;-0.94;100.00;100673.63;5009568;28;20052;-75
2022/01/15 01:45:23;;;;;;;49.55;26.17;;;;;;;-0.94;100.00;100678.81;5013058;28;20072;-78
2022/01/15 01:47:48;;;;;;;44.58;28.35;;;;;;;-0.98;100.00;100677.22;5013585;28;20034;-74
2022/01/15 01:50:15;;;;;;;49.97;26.50;;;;;;;-1.19;100.00;100672.63;5022085;28;20033;-76
2022/01/15 01:52:43;;;;;;;46.50;26.60;;;;;;;-1.27;100.00;100671.09;5014102;28;20033;-75
2022/01/15 01:55:09;;;;;;;47.63;27.42;;;;;;;-1.24;100.00;100668.41;5012376;28;20034;-76
2022/01/15 01:57:35;;;;;;;46.03;26.80;;;;;;;-1.18;100.00;100658.81;5010485;28;20088;-75
2022/01/15 02:00:04;;;;;;;46.15;27.23;;;;;;;-1.20;100.00;100661.44;5012508;28;20087;-76
2022/01/15 02:02:30;;;;;;;39.70;25.10;;;;;;;-1.19;100.00;100659.69;5012413;28;20049;-75
2022/01/15 02:04:59;;;;;;;45.38;26.80;;;;;;;-1.18;100.00;100658.81;5012494;28;20428;-75
2022/01/15 02:07:28;;;;;;;44.72;27.58;;;;;;;-1.33;100.00;100645.38;5011593;28;20036;-75
2022/01/15 02:09:55;;;;;;;43.83;25.38;;;;;;;-1.51;100.00;100640.69;5011709;28;20030;-75
2022/01/15 02:12:20;;;;;;;45.58;26.63;;;;;;;-1.66;100.00;100641.94;5011802;28;20520;-75
2022/01/15 02:14:46;;;;;;;43.50;26.35;;;;;;;-1.67;100.00;100644.56;5011252;28;20050;-76
2022/01/15 02:17:16;;;;;;;45.22;25.83;;;;;;;-1.65;100.00;100637.63;5010693;28;20112;-75
2022/01/15 02:20:22;;;;;;;41.05;26.05;;;;;;;-1.59;100.00;100637.44;5007574;28;20502;-76
2022/01/15 02:25:26;;;;;;;39.00;25.30;;;;;;;-1.66;100.00;100630.75;5009538;28;20041;-76
2022/01/15 02:27:51;;;;;;;49.28;26.08;;;;;;;-1.67;100.00;100629.03;5011155;28;20109;-76
2022/01/15 02:30:17;;;;;;;39.25;25.23;;;;;;;-1.70;100.00;100634.28;5011363;28;20037;-76
2022/01/15 02:32:43;;;;;;;48.88;26.75;;;;;;;-1.72;100.00;100628.31;5011414;28;20133;-76
2022/01/15 02:35:12;;;;;;;43.17;25.85;;;;;;;-1.74;100.00;100638.69;5011501;28;20033;-75
2022/01/15 02:37:37;;;;;;;41.65;24.42;;;;;;;-1.72;100.00;100646.44;5010732;28;20038;-75
2022/01/15 02:40:05;;;;;;;45.30;24.90;;;;;;;-1.67;100.00;100649.75;5011145;28;20037;-75
2022/01/15 02:42:31;;;;;;;41.65;26.20;;;;;;;-1.60;100.00;100646.13;5010524;28;20100;-75
2022/01/15 02:45:00;;;;;;;46.65;26.45;;;;;;;-1.56;100.00;100646.88;5011046;28;20466;-76
2022/01/15 02:50:10;;;;;;;49.42;27.23;;;;;;;-1.59;100.00;100631.44;5026678;28;20049;-75
2022/01/15 02:52:36;;;;;;;45.00;26.25;;;;;;;-1.59;100.00;100632.25;5020573;28;20065;-76
2022/01/15 02:55:02;;;;;;;42.92;25.30;;;;;;;-1.59;100.00;100637.44;5009805;28;20364;-75
2022/01/15 02:57:28;;;;;;;49.67;27.48;;;;;;;-1.59;100.00;100632.25;5009103;28;20041;-76
2022/01/15 02:59:53;;;;;;;44.30;25.92;;;;;;;-1.59;100.00;100627.09;5010719;28;20029;-76
2022/01/15 03:02:19;;;;;;;43.53;26.05;;;;;;;-1.60;100.00;100625.41;5009379;28;20466;-76
2022/01/15 03:04:44;;;;;;;40.65;25.58;;;;;;;-1.62;100.00;100611.66;5009243;28;20026;-75
2022/01/15 03:07:10;;;;;;;42.13;26.75;;;;;;;-1.59;100.00;100611.56;5009501;28;20104;-75
2022/01/15 03:09:35;;;;;;;42.53;26.00;;;;;;;-1.57;100.00;100609.78;5010059;28;20192;-75
2022/01/15 03:12:02;;;;;;;48.95;27.48;;;;;;;-1.59;100.00;100601.19;5010545;28;20203;-74
2022/01/15 03:14:31;;;;;;;45.13;26.25;;;;;;;-1.63;100.00;100604.78;5008652;28;20054;-74
2022/01/15 03:16:57;;;;;;;45.80;26.73;;;;;;;-1.64;100.00;100597.91;5010477;28;20384;-76
2022/01/15 03:19:22;;;;;;;46.70;28.25;;;;;;;-1.63;100.00;100598.75;5008985;28;20131;-74
2022/01/15 03:21:48;;;;;;;47.17;27.92;;;;;;;-1.63;100.00;100589.25;5008517;28;20141;-75
2022/01/15 03:24:13;;;;;;;45.15;26.08;;;;;;;-1.61;100.00;100595.25;5010492;28;20045;-75
2022/01/15 03:26:38;;;;;;;45.88;28.73;;;;;;;-1.60;100.00;100591.78;5009493;28;20030;-74
2022/01/15 03:29:04;;;;;;;47.78;28.00;;;;;;;-1.61;100.00;100590.06;5010282;28;20405;-75
2022/01/15 03:31:29;;;;;;;46.95;26.65;;;;;;;-1.65;100.00;100580.69;5009748;28;20443;-74
2022/01/15 03:33:55;;;;;;;46.38;27.33;;;;;;;-1.69;100.00;100574.72;5009984;28;20018;-76
2022/01/15 03:36:20;;;;;;;47.70;28.08;;;;;;;-1.66;100.00;100573.81;5010392;28;20026;-75
2022/01/15 03:38:46;;;;;;;47.22;28.73;;;;;;;-1.63;100.00;100572.88;5010096;28;20022;-76
2022/01/15 03:41:11;;;;;;;47.13;27.60;;;;;;;-1.67;100.00;100572.13;5010135;28;20034;-75
2022/01/15 03:43:37;;;;;;;45.65;28.48;;;;;;;-1.68;100.00;100570.41;5010089;28;20462;-77
2022/01/15 03:46:02;;;;;;;51.00;29.05;;;;;;;-1.69;100.00;100568.72;5010442;28;20026;-77
2022/01/15 03:48:28;;;;;;;48.85;28.85;;;;;;;-1.68;100.00;100560.06;5008452;28;20041;-74
2022/01/15 03:50:53;;;;;;;48.97;29.38;;;;;;;-1.66;100.00;100560.88;5008695;28;20457;-74
2022/01/15 03:53:21;;;;;;;48.05;29.20;;;;;;;-1.62;100.00;100561.63;5010213;28;20034;-77
2022/01/15 03:55:47;;;;;;;52.63;30.20;;;;;;;-1.60;100.00;100558.13;5009794;28;20347;-77
2022/01/15 03:58:12;;;;;;;49.85;28.50;;;;;;;-1.64;100.00;100561.66;5010122;28;20114;-76
2022/01/15 04:00:38;;;;;;;48.00;27.52;;;;;;;-1.63;100.00;100557.34;5009795;28;20062;-74
2022/01/15 04:03:04;;;;;;;49.78;27.85;;;;;;;-1.65;100.00;100554.81;5013112;28;20064;-74
2022/01/15 04:05:31;;;;;;;45.97;27.70;;;;;;;-1.66;100.00;100553.13;5013451;28;20034;-75
2022/01/15 04:07:56;;;;;;;49.95;29.17;;;;;;;-1.74;100.00;100545.56;5017233;28;20052;-74
2022/01/15 04:10:22;;;;;;;45.33;27.75;;;;;;;-1.85;100.00;100538.97;5024908;28;20033;-74
2022/01/15 04:12:47;;;;;;;48.28;25.75;;;;;;;-1.93;100.00;100539.16;5022124;28;20529;-76
2022/01/15 04:15:15;;;;;;;44.97;26.20;;;;;;;-1.93;100.00;100540.91;5014666;28;20041;-76
2022/01/15 04:17:47;;;;;;;44.03;26.90;;;;;;;-1.92;100.00;100534.84;5013626;28;20112;-76
2022/01/15 04:20:16;;;;;;;48.35;27.83;;;;;;;-1.90;100.00;100538.25;5014342;28;20044;-76
2022/01/15 04:22:42;;;;;;;49.03;29.20;;;;;;;-1.90;100.00;100538.25;5012080;28;20038;-75
2022/01/15 04:25:08;;;;;;;53.08;30.15;;;;;;;-1.89;100.00;100529.59;5013459;28;20032;-76
2022/01/15 04:27:33;;;;;;;48.60;29.05;;;;;;;-1.86;100.00;100537.25;5012869;28;20410;-75
2022/01/15 04:30:03;;;;;;;47.78;28.20;;;;;;;-1.84;100.00;100533.75;5012171;28;20566;-75
2022/01/15 04:32:28;;;;;;;44.92;26.77;;;;;;;-1.80;100.00;100534.50;5013122;28;20034;-76
2022/01/15 04:34:54;;;;;;;47.05;27.25;;;;;;;-1.84;100.00;100533.75;5013453;28;20037;-75
2022/01/15 04:37:22;;;;;;;45.67;28.92;;;;;;;-1.91;100.00;100533.97;5013272;28;20497;-75
2022/01/15 04:39:49;;;;;;;47.85;27.70;;;;;;;-1.94;100.00;100531.47;5012898;28;20112;-76
2022/01/15 04:42:15;;;;;;;44.90;26.00;;;;;;;-1.93;100.00;100531.41;5012975;28;20021;-76
2022/01/15 04:44:41;;;;;;;42.00;25.88;;;;;;;-2.04;100.00;100540.34;5008917;28;20084;-75
2022/01/15 04:47:07;;;;;;;50.13;27.45;;;;;;;-2.13;100.00;100536.25;5012135;28;20046;-75
2022/01/15 04:49:33;;;;;;;44.08;25.73;;;;;;;-2.14;100.00;100537.16;5012862;28;20034;-75
2022/01/15 04:51:59;;;;;;;45.95;26.30;;;;;;;-2.12;100.00;100528.44;5013147;28;20030;-75
2022/01/15 04:54:25;;;;;;;46.30;26.58;;;;;;;-2.05;100.00;100544.66;5013101;28;20030;-75
2022/01/15 04:56:51;;;;;;;45.03;26.27;;;;;;;-2.00;100.00;100531.63;5011457;28;20064;-75
2022/01/15 04:59:16;;;;;;;50.53;26.77;;;;;;;-1.96;100.00;100534.09;5011761;28;20029;-76
2022/01/15 05:01:42;;;;;;;45.85;26.45;;;;;;;-1.96;100.00;100528.06;5011696;28;20509;-75
2022/01/15 05:04:07;;;;;;;50.22;26.98;;;;;;;-1.94;100.00;100541.81;5013147;28;20033;-76
2022/01/15 05:06:33;;;;;;;43.03;25.73;;;;;;;-1.95;100.00;100540.13;5011874;28;20114;-76
2022/01/15 05:09:06;;;;;;;53.00;28.65;;;;;;;-2.00;100.00;100537.63;5012541;28;20042;-76
2022/01/15 05:11:45;;;;;;;46.47;28.33;;;;;;;-1.99;100.00;100543.66;5012610;28;20666;-76
2022/01/15 05:14:11;;;;;;;43.35;26.80;;;;;;;-2.02;100.00;100538.56;5012003;28;20042;-76
2022/01/15 05:16:37;;;;;;;44.72;27.48;;;;;;;-2.06;100.00;100548.97;5013087;28;20041;-76
2022/01/15 05:19:04;;;;;;;46.38;29.75;;;;;;;-2.09;100.00;100536.13;5014082;28;20030;-76
2022/01/15 05:21:30;;;;;;;45.28;28.42;;;;;;;-2.07;100.00;100547.31;5019320;28;20137;-76
2022/01/15 05:23:55;;;;;;;49.13;26.92;;;;;;;-2.04;100.00;100542.91;5019266;28;20053;-76
2022/01/15 05:26:21;;;;;;;46.03;27.60;;;;;;;-2.04;100.00;100551.53;5022896;28;20129;-77
2022/01/15 05:28:46;;;;;;;42.78;27.25;;;;;;;-2.04;100.00;100548.09;5026191;28;20060;-77
2022/01/15 05:31:12;;;;;;;47.13;27.17;;;;;;;-2.16;100.00;100551.84;5020676;28;20038;-74
2022/01/15 05:33:37;;;;;;;43.22;27.30;;;;;;;-2.30;100.00;100552.22;5012486;28;20030;-75
2022/01/15 05:36:03;;;;;;;45.58;25.95;;;;;;;-2.39;100.00;100555.00;5012240;28;20026;-76
2022/01/15 05:38:29;;;;;;;51.47;28.38;;;;;;;-2.47;100.00;100554.34;5010662;28;20041;-75
2022/01/15 05:40:54;;;;;;;53.35;30.35;;;;;;;-2.50;100.00;100549.25;5012241;28;20026;-76
2022/01/15 05:43:20;;;;;;;47.90;29.20;;;;;;;-2.47;100.00;100549.16;5012119;28;20042;-76
2022/01/15 05:45:46;;;;;;;45.05;27.65;;;;;;;-2.43;100.00;100548.22;5012194;28;20088;-77
2022/01/15 05:48:11;;;;;;;49.03;28.52;;;;;;;-2.38;100.00;100546.38;5011016;28;20188;-77
2022/01/15 05:50:37;;;;;;;40.47;26.77;;;;;;;-2.31;100.00;100542.75;5011734;28;20068;-76
2022/01/15 05:53:02;;;;;;;51.63;29.83;;;;;;;-2.32;100.00;100546.22;5012178;28;20044;-75
2022/01/15 05:55:28;;;;;;;52.22;31.50;;;;;;;-2.40;100.00;100545.53;5011806;28;20029;-77
2022/01/15 05:57:53;;;;;;;47.75;28.45;;;;;;;-2.45;100.00;100552.56;5011722;28;20431;-75
2022/01/15 06:00:19;;;;;;;49.65;29.33;;;;;;;-2.51;100.00;100547.53;5012048;28;20026;-77
2022/01/15 06:02:44;;;;;;;49.22;30.67;;;;;;;-2.51;100.00;100544.97;5011989;28;20064;-76
2022/01/15 06:05:10;;;;;;;52.83;31.30;;;;;;;-2.50;100.00;100547.53;5010637;28;20069;-75
2022/01/15 06:07:36;;;;;;;50.88;30.25;;;;;;;-2.46;100.00;100537.94;5010891;28;20037;-76
2022/01/15 06:10:02;;;;;;;53.60;29.35;;;;;;;-2.40;100.00;100548.13;5011446;28;20050;-76
2022/01/15 06:12:31;;;;;;;57.45;31.90;;;;;;;-2.36;100.00;100544.59;5011341;28;20030;-76
2022/01/15 06:14:57;;;;;;;48.13;30.80;;;;;;;-2.34;100.00;100537.63;5011365;28;20045;-76
2022/01/15 06:17:23;;;;;;;49.10;30.13;;;;;;;-2.32;100.00;100538.47;5011844;28;20156;-76
2022/01/15 06:19:49;;;;;;;53.03;30.42;;;;;;;-2.30;100.00;100541.88;5011660;28;20129;-76
2022/01/15 06:22:14;;;;;;;49.53;30.40;;;;;;;-2.28;100.00;100542.66;4996767;28;20044;-76
2022/01/15 06:24:40;;;;;;;50.40;28.75;;;;;;;-2.24;100.00;100544.28;5020323;28;20037;-76
2022/01/15 06:27:08;;;;;;;50.78;29.85;;;;;;;-2.23;100.00;100543.38;5019096;28;20033;-76
2022/01/15 06:29:34;;;;;;;50.22;30.13;;;;;;;-2.22;100.00;100539.94;5011733;28;20049;-76
2022/01/15 06:31:59;;;;;;;45.72;29.02;;;;;;;-2.21;100.00;100541.63;5015099;28;20033;-76
2022/01/15 06:34:25;;;;;;;48.42;30.10;;;;;;;-2.20;100.00;100545.91;5020860;28;20028;-76
2022/01/15 06:36:51;;;;;;;46.92;28.80;;;;;;;-2.20;100.00;100545.91;5016796;28;20038;-75
2022/01/15 06:39:17;;;;;;;42.33;27.02;;;;;;;-2.21;100.00;100540.78;5011786;28;20088;-76
2022/01/15 06:41:42;;;;;;;46.95;27.92;;;;;;;-2.21;100.00;100543.34;5010908;28;20793;-76
2022/01/15 06:44:08;;;;;;;42.65;26.63;;;;;;;-2.23;100.00;100545.97;5011082;28;20037;-77
2022/01/15 06:46:33;;;;;;;43.70;24.92;;;;;;;-2.29;100.00;100546.13;5010974;28;20112;-75
2022/01/15 06:48:59;;;;;;;46.65;25.63;;;;;;;-2.39;100.00;100542.09;5010039;28;20557;-75
2022/01/15 06:51:25;;;;;;;45.30;25.50;;;;;;;-2.49;100.00;100538.88;5011374;28;20029;-76
2022/01/15 06:53:50;;;;;;;40.67;24.40;;;;;;;-2.57;100.00;100532.19;5011102;28;20026;-74
2022/01/15 06:56:16;;;;;;;44.53;25.23;;;;;;;-2.67;100.00;100535.88;5011047;28;20033;-75
2022/01/15 06:58:46;;;;;;;46.50;25.48;;;;;;;-2.68;100.00;100536.75;5006971;28;20052;-75
2022/01/15 07:01:11;;;;;;;42.03;26.10;;;;;;;-2.71;100.00;100536.84;5009538;28;20022;-78
2022/01/15 07:03:37;;;;;;;43.33;25.23;;;;;;;-2.72;100.00;100535.16;5010433;28;20111;-75
2022/01/15 07:06:02;;;;;;;39.72;24.83;;;;;;;-2.72;100.00;100541.16;5010317;28;20029;-74
2022/01/15 07:08:28;;;;;;;41.80;25.80;;;;;;;-2.70;100.00;100533.34;5010358;28;20076;-77
2022/01/15 07:10:53;;;;;;;41.08;25.20;;;;;;;-2.84;100.00;100532.84;5010508;28;20045;-76
2022/01/15 07:13:20;;;;;;;38.30;23.60;;;;;;;-2.89;100.00;100533.78;5010341;28;20116;-74
2022/01/15 07:15:47;;;;;;;37.63;24.08;;;;;;;-2.96;100.00;100542.56;5010374;28;20872;-75
2022/01/15 07:18:12;;;;;;;37.42;23.90;;;;;;;-2.92;100.00;100544.19;5010767;28;20479;-76
2022/01/15 07:20:38;;;;;;;40.38;23.90;;;;;;;-2.85;100.00;100549.22;5010267;28;20033;-75
2022/01/15 07:23:03;;;;;;;43.33;24.42;;;;;;;-2.89;100.00;100543.28;5010577;28;20114;-76
2022/01/15 07:25:29;;;;;;;46.55;26.20;;;;;;;-2.88;100.00;100544.97;5010013;28;20065;-75
2022/01/15 07:27:54;;;;;;;43.60;25.77;;;;;;;-2.83;100.00;100547.47;5009857;28;20057;-75
2022/01/15 07:30:20;;;;;;;45.45;24.92;;;;;;;-2.77;100.00;100542.16;5010572;28;20040;-75
2022/01/15 07:32:46;;;;;;;45.05;24.98;;;;;;;-2.71;100.00;100547.19;5008861;28;20030;-74
2022/01/15 07:35:12;;;;;;;39.38;25.52;;;;;;;-2.63;100.00;100551.28;5021511;28;20037;-75
2022/01/15 07:37:38;;;;;;;40.60;24.60;;;;;;;-2.59;100.00;100552.06;5012539;28;20028;-75
2022/01/15 07:40:06;;;;;;;41.40;22.85;;;;;;;-2.51;100.00;100550.13;5012829;28;20044;-76
2022/01/15 07:42:36;;;;;;;41.05;25.15;;;;;;;-2.48;100.00;100550.06;5013385;28;20498;-76
2022/01/15 07:45:07;;;;;;;41.97;25.02;;;;;;;-2.52;100.00;100558.75;5014328;28;20527;-76
2022/01/15 07:47:32;;;;;;;41.50;24.45;;;;;;;-2.50;100.00;100552.69;5013769;28;20470;-76
2022/01/15 07:49:58;;;;;;;46.35;26.88;;;;;;;-2.45;100.00;100557.75;5012443;28;20376;-76
2022/01/15 07:52:24;;;;;;;45.60;26.45;;;;;;;-2.48;100.00;100555.25;5012622;28;20045;-75
2022/01/15 07:54:49;;;;;;;51.85;26.88;;;;;;;-2.47;100.00;100551.75;5014236;28;20114;-77
2022/01/15 07:57:14;;;;;;;52.05;28.25;;;;;;;-2.46;100.00;100558.63;5013677;28;20056;-75
2022/01/15 07:59:40;;;;;;;51.50;28.08;;;;;;;-2.42;100.00;100562.84;5013315;28;20053;-75
2022/01/15 08:02:05;;;;;;;58.25;29.20;;;;;;;-2.34;100.00;100568.66;5014151;28;20030;-84
2022/01/15 08:04:31;;;;;;;51.35;30.40;;;;;;;-2.25;100.00;100562.44;5015075;28;20117;-84
2022/01/15 08:06:56;;;;;;;54.88;29.33;;;;;;;-2.17;100.00;100561.34;5013872;28;20435;-82
2022/01/15 08:09:22;;;;;;;60.30;29.50;;;;;;;-2.06;100.00;100564.50;5015205;28;20033;-83
2022/01/15 08:11:47;;;;;;;58.42;30.10;;;;;;;-1.95;100.00;100565.97;5013364;28;20030;-82
2022/01/15 08:14:13;;;;;;;54.45;29.60;;;;;;;-1.84;100.00;100564.81;5015571;28;20052;-87
2022/01/15 08:16:38;;;;;;;46.63;27.98;;;;;;;-1.70;100.00;100569.59;5015883;28;20046;-86
2022/01/15 08:19:04;;;;;;;41.88;26.13;;;;;;;-1.61;100.00;100565.91;5015509;28;20470;-85
2022/01/15 08:21:29;;;;;;;38.45;25.13;;;;;;;-1.58;100.00;100571.84;5015918;28;20045;-86
2022/01/15 08:23:55;;;;;;;41.00;26.10;;;;;;;-1.53;100.00;100575.16;5017495;28;20368;-86
2022/01/15 08:26:21;;;;;;;40.42;25.80;;;;;;;-1.46;100.00;100576.69;5019610;28;20037;-87
2022/01/15 08:28:46;;;;;;;42.28;26.02;;;;;;;-1.44;100.00;100580.09;5027861;28;20024;-85
2022/01/15 08:31:12;;;;;;;41.28;26.25;;;;;;;-1.42;100.00;100578.31;5033895;28;20040;-86
2022/01/15 08:33:37;;;;;;;41.50;26.65;;;;;;;-1.38;100.00;100592.03;5034113;28;20026;-85
2022/01/15 08:36:03;;;;;;;40.58;25.98;;;;;;;-1.32;100.00;100584.94;5031214;28;20049;-86
2022/01/15 08:38:29;;;;;;;40.95;26.00;;;;;;;-1.23;100.00;100568.25;5036701;28;20050;-85
2022/01/15 08:40:55;;;;;;;43.97;25.92;;;;;;;-1.12;100.00;100576.56;5036972;28;20086;-87
2022/01/15 08:43:20;;;;;;;42.13;26.42;;;;;;;-0.98;100.00;100583.94;5035222;28;20060;-78
2022/01/15 08:45:47;;;;;;;47.17;27.20;;;;;;;-0.86;100.00;100578.41;5034948;28;20045;-87
2022/01/15 08:48:19;;;;;;;43.53;26.95;;;;;;;-0.72;100.00;100586.63;5017654;28;20053;-87
2022/01/15 08:50:49;;;;;;;38.65;25.00;;;;;;;-0.61;100.00;100592.31;5000772;28;20041;-87
2022/01/15 08:53:17;;;;;;;40.10;26.40;;;;;;;-0.54;100.00;100591.22;5007399;28;20025;-84
2022/01/15 08:55:45;;;;;;;47.00;26.27;;;;;;;-0.47;100.00;100579.75;4997887;28;20199;-82
2022/01/15 08:58:11;;;;;;;39.63;25.27;;;;;;;-0.38;100.00;100582.97;5014090;28;20045;-85
2022/01/15 09:00:39;;;;;;;40.97;26.73;;;;;;;-0.30;100.00;100584.41;5013774;28;20084;-84
2022/01/15 09:03:07;;;;;;;41.63;26.98;;;;;;;-0.20;100.00;100578.03;5015098;28;20026;-84
2022/01/15 09:05:34;;;;;;;38.03;25.20;;;;;;;-0.12;100.00;100583.78;5014678;28;20042;-82
2022/01/15 09:08:00;;;;;;;42.58;25.98;;;;;;;-0.01;100.00;100580.88;5012954;28;20294;-81
2022/01/15 09:10:26;;;;;;;40.42;24.08;;;;;;;0.09;100.00;100581.38;5013883;28;20030;-84
2022/01/15 09:12:51;;;;;;;40.67;25.92;;;;;;;0.17;100.00;100587.19;5014754;28;20037;-87
2022/01/15 09:15:18;;;;;;;36.20;23.60;;;;;;;0.25;100.00;100583.41;5016151;28;20038;-87
2022/01/15 09:17:44;;;;;;;40.97;25.88;;;;;;;0.35;100.00;100579.56;5012499;28;20029;-85
2022/01/15 09:20:10;;;;;;;37.10;23.45;;;;;;;0.43;100.00;100575.88;5033617;28;20073;-83
2022/01/15 09:22:36;;;;;;;35.78;24.40;;;;;;;0.53;100.00;100582.47;5033244;28;20021;-76
2022/01/15 09:25:03;;;;;;;39.80;24.38;;;;;;;0.64;100.00;100582.91;5037620;28;20050;-82
2022/01/15 09:30:15;;;;;;;38.63;23.98;;;;;;;0.84;100.00;100577.81;5026492;28;20064;-86
2022/01/15 09:32:43;;;;;;;39.60;24.42;;;;;;;0.96;100.00;100581.72;5021553;28;20073;-87
2022/01/15 09:35:09;;;;;;;40.30;25.15;;;;;;;1.06;100.00;100580.47;4997196;28;20425;-86
2022/01/15 09:37:35;;;;;;;44.40;26.10;;;;;;;1.17;100.00;100581.78;4996042;28;20041;-85
2022/01/15 09:40:01;;;;;;;34.80;23.83;;;;;;;1.25;99.12;100581.44;5012164;28;20519;-81
2022/01/15 09:42:27;;;;;;;42.42;23.70;;;;;;;1.34;98.62;100585.47;5012466;28;20486;-85
2022/01/15 09:44:54;;;;;;;40.83;25.35;;;;;;;1.45;98.62;100585.88;5013274;28;20029;-85
2022/01/15 09:47:22;;;;;;;45.15;26.05;;;;;;;1.55;98.16;100592.41;5012452;28;20128;-80
2022/01/15 09:49:50;;;;;;;38.35;24.30;;;;;;;1.65;98.42;100591.13;5012245;28;20030;-83
2022/01/15 09:52:16;;;;;;;43.63;25.58;;;;;;;1.72;98.02;100579.56;5013078;28;20080;-84
2022/01/15 09:54:42;;;;;;;37.28;23.58;;;;;;;1.81;97.65;100579.22;5004379;28;20030;-83
2022/01/15 09:57:08;;;;;;;39.38;24.55;;;;;;;1.90;97.29;100578.81;5013067;28;20734;-85
2022/01/15 09:59:34;;;;;;;33.83;22.85;;;;;;;2.02;96.19;100583.53;5010886;28;20435;-85
2022/01/15 10:02:03;;;;;;;37.00;23.40;;;;;;;2.16;95.56;100576.91;5012279;28;20057;-84
2022/01/15 10:04:32;;;;;;;44.55;24.75;;;;;;;2.30;95.41;100577.97;5013178;28;20038;-81
2022/01/15 10:07:28;;;;;;;26.13;18.17;;;;;;;2.43;95.35;100573.94;5025465;28;20034;-86
2022/01/15 10:09:55;;;;;;;36.30;22.92;;;;;;;2.58;94.96;100582.00;5027166;28;20034;-85
2022/01/15 10:12:30;;;;;;;37.30;24.10;;;;;;;2.69;94.36;100580.63;5029211;28;20097;-83
2022/01/15 10:14:59;;;;;;;34.65;22.42;;;;;;;2.81;93.80;100576.63;5021995;28;20057;-81
2022/01/15 10:17:29;;;;;;;37.00;22.97;;;;;;;2.93;92.77;100583.03;5013145;28;20033;-84
2022/01/15 10:19:57;;;;;;;31.17;20.15;;;;;;;3.05;92.04;100572.06;5013685;28;20289;-84
2022/01/15 10:22:25;;;;;;;32.83;20.33;;;;;;;3.17;91.63;100576.72;5012155;28;20061;-83
2022/01/15 10:24:55;;;;;;;33.08;20.83;;;;;;;3.29;91.18;100565.69;5011274;28;20061;-82
2022/01/15 10:27:24;;;;;;;27.38;18.80;;;;;;;3.40;90.46;100558.22;5010322;28;20099;-83
2022/01/15 10:29:50;;;;;;;27.63;17.75;;;;;;;3.51;89.51;100561.16;5011019;28;20412;-88
2022/01/15 10:32:16;;;;;;;27.27;17.63;;;;;;;3.60;88.97;100555.47;5012305;28;20088;-81
2022/01/15 10:34:44;;;;;;;23.90;16.70;;;;;;;3.69;87.84;100555.03;5012257;28;20030;-84
2022/01/15 10:37:16;;;;;;;23.45;17.08;;;;;;;3.79;86.18;100554.56;5012328;28;20387;-80
2022/01/15 10:39:58;;;;;;;24.88;16.83;;;;;;;3.91;85.82;100559.19;5011326;28;20140;-90
2022/01/15 10:42:25;;;;;;;22.02;16.58;;;;;;;3.99;85.34;100547.44;5010616;28;20029;-81
2022/01/15 10:44:53;;;;;;;26.10;17.63;;;;;;;4.08;85.11;100556.56;5011082;28;20099;-82
2022/01/15 10:47:21;;;;;;;27.75;19.52;;;;;;;4.17;85.08;100550.06;5021290;28;20468;-82
2022/01/15 10:49:46;;;;;;;35.80;19.42;;;;;;;4.25;84.96;100548.72;5021469;28;20041;-84
2022/01/15 10:52:23;;;;;;;32.70;20.58;;;;;;;4.33;84.80;100540.50;5011852;28;20040;-84
2022/01/15 10:55:06;;;;;;;29.15;20.73;;;;;;;4.42;84.59;100542.63;5007741;28;20038;-84
2022/01/15 10:57:40;;;;;;;30.83;20.77;;;;;;;4.49;84.70;100537.00;5012007;28;20037;-84
2022/01/15 11:00:16;;;;;;;32.92;20.77;;;;;;;4.56;84.88;100536.69;5012164;28;20030;-83
2022/01/15 11:02:54;;;;;;;26.83;18.88;;;;;;;4.65;83.56;100536.22;5010472;28;20144;-85
2022/01/15 11:05:25;;;;;;;30.08;19.83;;;;;;;4.73;83.89;100539.25;5007804;28;20046;-85
2022/01/15 11:08:07;;;;;;;33.72;21.35;;;;;;;4.83;83.40;100530.81;5012438;28;20054;-85
2022/01/15 11:10:43;;;;;;;33.90;21.92;;;;;;;4.97;82.69;100532.69;5011931;28;20038;-85
2022/01/15 11:13:14;;;;;;;34.45;22.52;;;;;;;5.07;82.73;100530.41;5010738;28;20030;-86
2022/01/15 11:15:43;;;;;;;35.92;24.58;;;;;;;5.16;82.50;100533.38;5011348;28;20103;-85
2022/01/15 11:18:14;;;;;;;40.05;25.42;;;;;;;5.24;82.13;100515.47;5012358;28;20038;-85
2022/01/15 11:20:45;;;;;;;40.58;26.40;;;;;;;5.34;83.14;100521.88;5010204;28;20107;-85
2022/01/15 11:23:12;;;;;;;42.08;25.88;;;;;;;5.45;83.03;100520.44;5012267;28;20108;-85
2022/01/15 11:25:38;;;;;;;38.25;23.75;;;;;;;5.55;82.67;100511.13;5011322;28;20053;-85
2022/01/15 11:28:05;;;;;;;35.25;23.38;;;;;;;5.68;82.36;100506.88;5011508;28;20471;-85